createdAt,value
2018-06-12T00:00:20.270Z,11.00
2018-06-12T00:01:20.286Z,10.40
2018-06-12T00:02:20.302Z,10.40
2018-06-12T00:03:20.321Z,11.60
2018-06-12T00:04:20.334Z,9.70
2018-06-12T00:05:20.350Z,9.60
2018-06-12T00:06:20.368Z,13.40
2018-06-12T00:07:20.381Z,65.20
2018-06-12T00:08:20.396Z,602.40
2018-06-12T00:09:20.413Z,515.30
2018-06-12T00:10:20.427Z,98.30
2018-06-12T00:11:20.442Z,13.90
2018-06-12T00:12:20.459Z,13.40
2018-06-12T00:13:20.474Z,13.70
2018-06-12T00:14:20.489Z,11.10
2018-06-12T00:15:20.505Z,10.70
2018-06-12T00:16:20.521Z,12.70
2018-06-12T00:17:20.537Z,9.20
2018-06-12T00:18:20.552Z,10.30
2018-06-12T00:19:20.570Z,11.00
2018-06-12T00:20:20.582Z,13.30
2018-06-12T00:21:20.602Z,11.50
2018-06-12T00:22:20.616Z,13.30
2018-06-12T00:23:20.631Z,13.00
2018-06-12T00:24:20.660Z,14.20
2018-06-12T00:25:20.662Z,11.90
2018-06-12T00:26:20.677Z,15.40
2018-06-12T00:27:20.701Z,12.10
2018-06-12T00:28:20.710Z,12.50
2018-06-12T00:29:20.726Z,16.30
2018-06-12T00:30:20.739Z,11.90
2018-06-12T00:31:20.758Z,10.30
2018-06-12T00:32:20.776Z,11.00
2018-06-12T00:33:20.789Z,9.10
2018-06-12T00:34:20.804Z,9.00
2018-06-12T00:35:20.821Z,8.70
2018-06-12T00:36:20.835Z,8.10
2018-06-12T00:37:20.851Z,9.80
2018-06-12T00:38:20.868Z,9.50
2018-06-12T00:39:20.883Z,10.80
2018-06-12T00:40:20.899Z,11.10
2018-06-12T00:41:20.915Z,12.40
2018-06-12T00:42:20.933Z,19.30
2018-06-12T00:43:20.951Z,39.70
2018-06-12T00:44:20.966Z,695.80
2018-06-12T00:45:20.979Z,495.60
2018-06-12T00:46:20.995Z,492.50
2018-06-12T00:47:21.012Z,360.20
2018-06-12T00:48:21.031Z,102.50
2018-06-12T00:49:21.042Z,383.10
2018-06-12T00:50:21.060Z,172.30
2018-06-12T00:51:21.077Z,156.50
2018-06-12T00:52:21.090Z,346.10
2018-06-12T00:53:21.105Z,651.10
2018-06-12T00:54:21.125Z,557.80
2018-06-12T00:55:21.138Z,582.70
2018-06-12T00:56:21.152Z,573.10
2018-06-12T00:57:21.172Z,592.40
2018-06-12T00:58:21.188Z,707.10
2018-06-12T00:59:21.199Z,758.20
2018-06-12T01:00:21.217Z,875.70
2018-06-12T01:01:21.233Z,474.70
2018-06-12T01:02:21.248Z,544.10
2018-06-12T01:03:21.265Z,573.90
2018-06-12T01:04:21.282Z,334.30
2018-06-12T01:05:21.295Z,621.70
2018-06-12T01:06:21.313Z,858.70
2018-06-12T01:07:21.328Z,776.50
2018-06-12T01:08:21.341Z,785.90
2018-06-12T01:09:21.358Z,602.90
2018-06-12T01:10:21.373Z,662.10
2018-06-12T01:11:21.397Z,863.20
2018-06-12T01:12:21.405Z,529.40
2018-06-12T01:13:21.422Z,589.50
2018-06-12T01:14:21.441Z,425.10
2018-06-12T01:15:21.455Z,708.90
2018-06-12T01:16:21.470Z,1053.20
2018-06-12T01:17:21.488Z,813.30
2018-06-12T01:18:21.503Z,689.70
2018-06-12T01:19:21.516Z,661.20
2018-06-12T01:20:21.531Z,670.70
2018-06-12T01:21:21.549Z,815.10
2018-06-12T01:22:21.563Z,633.30
2018-06-12T01:23:21.581Z,710.60
2018-06-12T01:24:21.594Z,725.50
2018-06-12T01:25:21.609Z,646.10
2018-06-12T01:26:21.626Z,797.00
2018-06-12T01:27:21.641Z,639.40
2018-06-12T01:28:21.656Z,622.40
2018-06-12T01:29:21.672Z,473.60
2018-06-12T01:30:21.686Z,853.00
2018-06-12T01:31:21.705Z,519.70
2018-06-12T01:32:21.720Z,778.60
2018-06-12T01:33:21.733Z,497.40
2018-06-12T01:34:21.749Z,884.50
2018-06-12T01:35:21.766Z,515.40
2018-06-12T01:36:21.779Z,824.20
2018-06-12T01:37:21.795Z,503.20
2018-06-12T01:38:21.814Z,620.60
2018-06-12T01:39:21.827Z,716.00
2018-06-12T01:40:21.841Z,460.50
2018-06-12T01:41:21.857Z,156.30
2018-06-12T01:42:21.874Z,26.20
2018-06-12T01:43:21.888Z,69.40
2018-06-12T01:44:21.904Z,257.10
2018-06-12T01:45:21.928Z,616.40
2018-06-12T01:46:21.937Z,526.00
2018-06-12T01:47:21.952Z,579.10
2018-06-12T01:48:21.966Z,628.30
2018-06-12T01:49:21.982Z,602.30
2018-06-12T01:50:21.997Z,564.00
2018-06-12T01:51:22.014Z,493.80
2018-06-12T01:52:22.028Z,669.70
2018-06-12T01:53:22.043Z,515.50
2018-06-12T01:54:22.059Z,241.30
2018-06-12T01:55:22.074Z,625.20
2018-06-12T01:56:22.089Z,741.40
2018-06-12T01:57:22.106Z,331.60
2018-06-12T01:58:22.123Z,177.90
2018-06-12T01:59:22.136Z,160.80
2018-06-12T02:00:22.148Z,147.20
2018-06-12T02:01:22.167Z,33.40
2018-06-12T02:02:22.181Z,460.50
2018-06-12T02:03:22.196Z,682.10
2018-06-12T02:04:22.213Z,526.80
2018-06-12T02:05:22.226Z,455.20
2018-06-12T02:06:22.241Z,520.00
2018-06-12T02:07:22.258Z,348.20
2018-06-12T02:08:22.274Z,207.00
2018-06-12T02:09:22.287Z,31.40
2018-06-12T02:10:22.302Z,25.70
2018-06-12T02:11:22.316Z,23.60
2018-06-12T02:12:22.331Z,11.60
2018-06-12T02:13:22.351Z,24.20
2018-06-12T02:14:22.361Z,18.10
2018-06-12T02:15:22.378Z,477.10
2018-06-12T02:16:22.393Z,438.70
2018-06-12T02:17:22.409Z,21.10
2018-06-12T02:18:22.423Z,20.60
2018-06-12T02:19:22.441Z,35.10
2018-06-12T02:20:22.452Z,14.60
2018-06-12T02:21:22.467Z,14.90
2018-06-12T02:22:22.486Z,12.10
2018-06-12T02:23:22.498Z,10.20
2018-06-12T02:24:22.511Z,32.70
2018-06-12T02:25:22.525Z,81.40
2018-06-12T02:26:22.547Z,575.30
2018-06-12T02:27:22.556Z,501.10
2018-06-12T02:28:22.571Z,653.30
2018-06-12T02:29:22.585Z,715.10
2018-06-12T02:30:22.601Z,570.40
2018-06-12T02:31:22.616Z,428.40
2018-06-12T02:32:22.632Z,449.20
2018-06-12T02:33:22.648Z,607.70
2018-06-12T02:34:22.660Z,557.30
2018-06-12T02:35:22.677Z,447.60
2018-06-12T02:36:22.691Z,453.70
2018-06-12T02:37:22.703Z,319.40
2018-06-12T02:38:22.721Z,398.30
2018-06-12T02:39:22.744Z,481.50
2018-06-12T02:40:22.754Z,272.20
2018-06-12T02:41:22.763Z,253.50
2018-06-12T02:42:22.777Z,127.10
2018-06-12T02:43:22.793Z,55.30
2018-06-12T02:44:22.806Z,49.10
2018-06-12T02:45:22.821Z,109.10
2018-06-12T02:46:22.839Z,183.80
2018-06-12T02:47:22.853Z,120.50
2018-06-12T02:48:22.865Z,31.40
2018-06-12T02:49:22.881Z,58.60
2018-06-12T02:50:22.895Z,79.40
2018-06-12T02:51:22.912Z,101.10
2018-06-12T02:52:22.926Z,126.80
2018-06-12T02:53:22.942Z,274.30
2018-06-12T02:54:22.957Z,220.30
2018-06-12T02:55:22.972Z,132.10
2018-06-12T02:56:23.051Z,157.60
2018-06-12T02:57:22.998Z,223.80
2018-06-12T02:58:23.019Z,104.50
2018-06-12T02:59:23.029Z,165.50
2018-06-12T03:00:23.044Z,111.90
2018-06-12T03:01:23.058Z,391.80
2018-06-12T03:02:23.074Z,492.20
2018-06-12T03:03:23.092Z,354.90
2018-06-12T03:04:23.103Z,277.80
2018-06-12T03:05:23.117Z,494.70
2018-06-12T03:06:23.132Z,468.60
2018-06-12T03:07:23.149Z,404.30
2018-06-12T03:08:23.161Z,171.80
2018-06-12T03:09:23.176Z,124.50
2018-06-12T03:10:23.193Z,17.90
2018-06-12T03:11:23.206Z,340.50
2018-06-12T03:12:23.220Z,475.20
2018-06-12T03:13:23.239Z,324.00
2018-06-12T03:14:23.250Z,455.10
2018-06-12T03:15:23.264Z,352.30
2018-06-12T03:16:23.280Z,44.30
2018-06-12T03:17:23.297Z,118.40
2018-06-12T03:18:23.311Z,31.70
2018-06-12T03:19:23.328Z,20.10
2018-06-12T03:20:23.338Z,20.80
2018-06-12T03:21:23.355Z,67.10
2018-06-12T03:22:23.370Z,153.10
2018-06-12T03:23:23.520Z,166.40
2018-06-12T03:24:23.400Z,264.20
2018-06-12T03:25:23.413Z,213.50
2018-06-12T03:26:23.429Z,142.50
2018-06-12T03:27:23.446Z,141.80
2018-06-12T03:28:23.461Z,272.00
2018-06-12T03:29:23.473Z,356.40
2018-06-12T03:30:23.487Z,483.20
2018-06-12T03:31:23.502Z,555.30
2018-06-12T03:32:23.517Z,427.60
2018-06-12T03:33:23.533Z,329.60
2018-06-12T03:34:23.546Z,403.30
2018-06-12T03:35:23.563Z,398.20
2018-06-12T03:36:23.577Z,404.20
2018-06-12T03:37:23.591Z,388.30
2018-06-12T03:38:23.604Z,281.10
2018-06-12T03:39:23.619Z,108.50
2018-06-12T03:40:23.636Z,87.00
2018-06-12T03:41:23.649Z,45.70
2018-06-12T03:42:23.663Z,43.00
2018-06-12T03:43:23.678Z,29.60
2018-06-12T03:44:23.693Z,211.40
2018-06-12T03:45:23.713Z,191.00
2018-06-12T03:46:23.722Z,488.50
2018-06-12T03:47:23.734Z,512.00
2018-06-12T03:48:23.749Z,535.20
2018-06-12T03:49:23.764Z,576.40
2018-06-12T03:50:23.779Z,557.80
2018-06-12T03:51:23.796Z,486.40
2018-06-12T03:52:23.809Z,574.00
2018-06-12T03:53:23.823Z,361.40
2018-06-12T03:54:23.839Z,416.30
2018-06-12T03:55:23.854Z,466.30
2018-06-12T03:56:23.866Z,361.90
2018-06-12T03:57:23.881Z,302.70
2018-06-12T03:58:23.896Z,378.20
2018-06-12T03:59:23.909Z,469.00
2018-06-12T04:00:23.923Z,404.40
2018-06-12T04:01:23.939Z,449.30
2018-06-12T04:02:23.953Z,393.50
2018-06-12T04:03:23.970Z,235.20
2018-06-12T04:04:23.982Z,184.70
2018-06-12T04:05:23.995Z,94.10
2018-06-12T04:06:24.013Z,46.60
2018-06-12T04:07:24.026Z,41.60
2018-06-12T04:08:24.040Z,57.30
2018-06-12T04:09:24.074Z,116.50
2018-06-12T04:10:24.074Z,125.00
2018-06-12T04:11:24.085Z,223.10
2018-06-12T04:12:24.097Z,189.30
2018-06-12T04:13:24.113Z,326.00
2018-06-12T04:14:24.128Z,257.00
2018-06-12T04:15:24.143Z,470.00
2018-06-12T04:16:24.157Z,438.70
2018-06-12T04:17:24.170Z,508.10
2018-06-12T04:18:24.186Z,523.80
2018-06-12T04:19:24.199Z,502.80
2018-06-12T04:20:24.245Z,478.50
2018-06-12T04:21:24.232Z,464.20
2018-06-12T04:22:24.242Z,503.00
2018-06-12T04:23:24.258Z,472.60
2018-06-12T04:24:24.271Z,414.30
2018-06-12T04:25:24.287Z,427.20
2018-06-12T04:26:24.310Z,412.80
2018-06-12T04:27:24.314Z,313.70
2018-06-12T04:28:24.330Z,201.10
2018-06-12T04:29:24.345Z,191.00
2018-06-12T04:30:24.358Z,101.10
2018-06-12T04:31:24.373Z,133.50
2018-06-12T04:32:24.387Z,420.10
2018-06-12T04:33:24.405Z,375.00
2018-06-12T04:34:24.416Z,360.40
2018-06-12T04:35:24.431Z,321.60
2018-06-12T04:36:24.444Z,407.80
2018-06-12T04:37:24.459Z,134.00
2018-06-12T04:38:24.474Z,150.20
2018-06-12T04:39:24.489Z,248.70
2018-06-12T04:40:24.505Z,148.00
2018-06-12T04:41:24.517Z,168.70
2018-06-12T04:42:24.534Z,91.20
2018-06-12T04:43:24.588Z,49.00
2018-06-12T04:44:24.559Z,25.50
2018-06-12T04:45:24.578Z,18.10
2018-06-12T04:46:24.588Z,17.90
2018-06-12T04:47:24.603Z,59.10
2018-06-12T04:48:24.619Z,46.00
2018-06-12T04:49:24.631Z,388.80
2018-06-12T04:50:24.649Z,385.60
2018-06-12T04:51:24.664Z,321.30
2018-06-12T04:52:24.677Z,249.70
2018-06-12T04:53:24.690Z,217.80
2018-06-12T04:54:24.708Z,313.50
2018-06-12T04:55:24.720Z,543.40
2018-06-12T04:56:24.733Z,363.20
2018-06-12T04:57:24.749Z,419.60
2018-06-12T04:58:24.763Z,368.90
2018-06-12T04:59:24.786Z,371.40
2018-06-12T05:00:24.794Z,318.50
2018-06-12T05:01:24.805Z,266.60
2018-06-12T05:02:24.821Z,241.40
2018-06-12T05:03:24.836Z,216.50
2018-06-12T05:04:24.849Z,299.20
2018-06-12T05:05:24.864Z,362.20
2018-06-12T05:06:24.881Z,327.00
2018-06-12T05:07:24.894Z,274.70
2018-06-12T05:08:24.908Z,315.60
2018-06-12T05:09:24.920Z,290.20
2018-06-12T05:10:24.938Z,319.40
2018-06-12T05:11:24.951Z,314.70
2018-06-12T05:12:24.969Z,308.30
2018-06-12T05:13:24.979Z,221.80
2018-06-12T05:14:24.993Z,276.70
2018-06-12T05:15:25.009Z,262.00
2018-06-12T05:16:25.022Z,301.20
2018-06-12T05:17:25.036Z,304.70
2018-06-12T05:18:25.055Z,366.40
2018-06-12T05:19:25.069Z,271.50
2018-06-12T05:20:25.079Z,260.00
2018-06-12T05:21:25.097Z,373.70
2018-06-12T05:22:25.115Z,391.20
2018-06-12T05:23:25.125Z,366.30
2018-06-12T05:24:25.142Z,459.40
2018-06-12T05:25:25.154Z,356.00
2018-06-12T05:26:25.169Z,305.80
2018-06-12T05:27:25.182Z,387.50
2018-06-12T05:28:25.198Z,450.00
2018-06-12T05:29:25.210Z,410.30
2018-06-12T05:30:25.225Z,446.60
2018-06-12T05:31:25.242Z,323.60
2018-06-12T05:32:25.254Z,357.10
2018-06-12T05:33:25.268Z,399.20
2018-06-12T05:34:25.282Z,348.00
2018-06-12T05:35:25.297Z,490.70
2018-06-12T05:36:25.310Z,420.20
2018-06-12T05:37:25.325Z,367.70
2018-06-12T05:38:25.341Z,489.60
2018-06-12T05:39:25.354Z,446.60
2018-06-12T05:40:25.372Z,238.30
2018-06-12T05:41:25.381Z,115.60
2018-06-12T05:42:25.398Z,374.90
2018-06-12T05:43:25.413Z,317.30
2018-06-12T05:44:25.439Z,242.40
2018-06-12T05:45:25.441Z,273.40
2018-06-12T05:46:25.462Z,378.00
2018-06-12T05:47:25.469Z,305.10
2018-06-12T05:48:25.485Z,288.30
2018-06-12T05:49:25.499Z,201.00
2018-06-12T05:50:25.515Z,178.90
2018-06-12T05:51:25.527Z,79.60
2018-06-12T05:52:25.542Z,87.20
2018-06-12T05:53:25.554Z,237.00
2018-06-12T05:54:25.569Z,286.90
2018-06-12T05:55:25.585Z,366.30
2018-06-12T05:56:25.597Z,448.90
2018-06-12T05:57:25.615Z,482.30
2018-06-12T05:58:25.628Z,357.90
2018-06-12T05:59:25.641Z,357.40
2018-06-12T06:00:25.655Z,280.70
2018-06-12T06:01:25.671Z,422.30
2018-06-12T06:02:25.688Z,411.10
2018-06-12T06:03:25.700Z,376.50
2018-06-12T06:04:25.714Z,424.00
2018-06-12T06:05:25.730Z,425.90
2018-06-12T06:06:25.743Z,444.50
2018-06-12T06:07:25.758Z,604.90
2018-06-12T06:08:25.770Z,439.20
2018-06-12T06:09:25.786Z,360.40
2018-06-12T06:10:25.801Z,332.50
2018-06-12T06:11:25.815Z,338.20
2018-06-12T06:12:25.840Z,301.50
2018-06-12T06:13:25.844Z,370.20
2018-06-12T06:14:25.858Z,347.80
2018-06-12T06:15:25.878Z,290.20
2018-06-12T06:16:25.890Z,220.80
2018-06-12T06:17:25.902Z,365.90
2018-06-12T06:18:25.916Z,429.90
2018-06-12T06:19:25.934Z,398.50
2018-06-12T06:20:25.945Z,372.10
2018-06-12T06:21:25.960Z,252.70
2018-06-12T06:22:26.022Z,162.40
2018-06-12T06:23:25.994Z,119.90
2018-06-12T06:24:26.003Z,308.70
2018-06-12T06:25:26.020Z,393.90
2018-06-12T06:26:26.036Z,351.30
2018-06-12T06:27:26.050Z,423.20
2018-06-12T06:28:26.060Z,491.80
2018-06-12T06:29:26.076Z,496.40
2018-06-12T06:30:26.091Z,562.10
2018-06-12T06:31:26.105Z,508.00
2018-06-12T06:32:26.120Z,458.90
2018-06-12T06:33:26.134Z,414.00
2018-06-12T06:34:26.147Z,563.00
2018-06-12T06:35:26.163Z,473.10
2018-06-12T06:36:26.178Z,636.40
2018-06-12T06:37:26.192Z,599.40
2018-06-12T06:38:26.207Z,424.70
2018-06-12T06:39:26.220Z,606.40
2018-06-12T06:40:26.235Z,550.80
2018-06-12T06:41:26.249Z,472.40
2018-06-12T06:42:26.264Z,577.10
2018-06-12T06:43:26.280Z,573.40
2018-06-12T06:44:26.292Z,540.20
2018-06-12T06:45:26.307Z,506.20
2018-06-12T06:46:26.322Z,437.50
2018-06-12T06:47:26.337Z,465.60
2018-06-12T06:48:26.349Z,430.50
2018-06-12T06:49:26.363Z,328.40
2018-06-12T06:50:26.379Z,391.60
2018-06-12T06:51:26.395Z,443.70
2018-06-12T06:52:26.408Z,490.70
2018-06-12T06:53:26.423Z,395.70
2018-06-12T06:54:26.436Z,273.50
2018-06-12T06:55:26.451Z,393.40
2018-06-12T06:56:26.465Z,390.30
2018-06-12T06:57:26.482Z,166.00
2018-06-12T06:58:26.494Z,68.10
2018-06-12T06:59:26.508Z,229.70
2018-06-12T07:00:26.521Z,226.90
2018-06-12T07:01:26.536Z,160.10
2018-06-12T07:02:26.549Z,377.20
2018-06-12T07:03:26.565Z,327.50
2018-06-12T07:04:26.593Z,311.00
2018-06-12T07:05:26.592Z,278.90
2018-06-12T07:06:26.608Z,232.50
2018-06-12T07:07:26.624Z,155.50
2018-06-12T07:08:26.640Z,306.30
2018-06-12T07:09:26.652Z,239.40
2018-06-12T07:10:26.665Z,392.10
2018-06-12T07:11:26.680Z,436.90
2018-06-12T07:12:26.693Z,411.00
2018-06-12T07:13:26.710Z,422.00
2018-06-12T07:14:26.723Z,212.20
2018-06-12T07:15:26.739Z,202.10
2018-06-12T07:16:26.755Z,421.00
2018-06-12T07:17:26.769Z,169.00
2018-06-12T07:18:26.783Z,199.20
2018-06-12T07:19:26.800Z,335.20
2018-06-12T07:20:26.815Z,329.50
2018-06-12T07:21:26.827Z,431.20
2018-06-12T07:22:26.843Z,429.20
2018-06-12T07:23:26.858Z,450.60
2018-06-12T07:24:26.872Z,459.00
2018-06-12T07:25:26.889Z,454.20
2018-06-12T07:26:26.902Z,434.50
2018-06-12T07:27:26.916Z,330.50
2018-06-12T07:28:26.930Z,349.30
2018-06-12T07:29:26.947Z,481.60
2018-06-12T07:30:26.961Z,486.90
2018-06-12T07:31:26.976Z,483.60
2018-06-12T07:32:26.990Z,503.80
2018-06-12T07:33:27.005Z,496.70
2018-06-12T07:34:27.021Z,409.40
2018-06-12T07:35:27.035Z,339.00
2018-06-12T07:36:27.049Z,405.80
2018-06-12T07:37:27.068Z,463.40
2018-06-12T07:38:27.081Z,502.80
2018-06-12T07:39:27.094Z,584.60
2018-06-12T07:40:27.109Z,314.60
2018-06-12T07:41:27.126Z,232.10
2018-06-12T07:42:27.139Z,101.70
2018-06-12T07:43:27.186Z,188.10
2018-06-12T07:44:27.166Z,385.50
2018-06-12T07:45:27.182Z,241.40
2018-06-12T07:46:27.197Z,407.80
2018-06-12T07:47:27.212Z,584.10
2018-06-12T07:48:27.228Z,434.60
2018-06-12T07:49:27.241Z,460.50
2018-06-12T07:50:27.255Z,294.00
2018-06-12T07:51:27.273Z,526.00
2018-06-12T07:52:27.286Z,421.90
2018-06-12T07:53:27.299Z,179.50
2018-06-12T07:54:27.315Z,101.60
2018-06-12T07:55:27.330Z,115.20
2018-06-12T07:56:27.343Z,157.10
2018-06-12T07:57:27.358Z,313.00
2018-06-12T07:58:27.373Z,540.40
2018-06-12T07:59:27.385Z,730.00
2018-06-12T08:00:27.451Z,565.70
2018-06-12T08:01:27.415Z,363.70
2018-06-12T08:02:27.431Z,455.10
2018-06-12T08:03:27.443Z,147.60
2018-06-12T08:04:27.458Z,430.30
2018-06-12T08:05:27.476Z,410.30
2018-06-12T08:06:27.491Z,413.30
2018-06-12T08:07:27.504Z,403.00
2018-06-12T08:08:27.518Z,558.10
2018-06-12T08:09:27.535Z,712.80
2018-06-12T08:10:27.549Z,604.70
2018-06-12T08:11:27.563Z,456.50
2018-06-12T08:12:27.577Z,367.00
2018-06-12T08:13:27.595Z,430.80
2018-06-12T08:14:27.608Z,488.90
2018-06-12T08:15:27.624Z,395.70
2018-06-12T08:16:27.636Z,198.90
2018-06-12T08:17:27.656Z,55.20
2018-06-12T08:18:27.670Z,37.10
2018-06-12T08:19:27.684Z,81.50
2018-06-12T08:20:27.696Z,193.80
2018-06-12T08:21:27.713Z,130.90
2018-06-12T08:22:27.729Z,64.40
2018-06-12T08:23:27.743Z,162.00
2018-06-12T08:24:27.756Z,434.20
2018-06-12T08:25:27.772Z,549.00
2018-06-12T08:26:27.788Z,616.80
2018-06-12T08:27:27.802Z,732.50
2018-06-12T08:28:27.817Z,536.60
2018-06-12T08:29:27.832Z,418.90
2018-06-12T08:30:27.975Z,95.60
2018-06-12T08:31:27.861Z,145.20
2018-06-12T08:32:27.876Z,488.80
2018-06-12T08:33:27.894Z,304.70
2018-06-12T08:34:27.907Z,302.30
2018-06-12T08:35:27.966Z,152.00
2018-06-12T08:36:27.936Z,348.20
2018-06-12T08:37:27.953Z,74.60
2018-06-12T08:38:27.970Z,128.50
2018-06-12T08:39:27.982Z,161.70
2018-06-12T08:40:27.997Z,424.90
2018-06-12T08:41:28.013Z,519.50
2018-06-12T08:42:28.027Z,181.70
2018-06-12T08:43:28.049Z,674.90
2018-06-12T08:44:28.059Z,101.60
2018-06-12T08:45:28.073Z,234.00
2018-06-12T08:46:28.113Z,420.20
2018-06-12T08:47:28.104Z,601.80
2018-06-12T08:48:28.118Z,739.20
2018-06-12T08:49:28.135Z,537.30
2018-06-12T08:50:28.152Z,737.10
2018-06-12T08:51:28.168Z,582.60
2018-06-12T08:52:28.228Z,745.80
2018-06-12T08:53:28.199Z,1040.00
2018-06-12T08:54:28.214Z,1006.70
2018-06-12T08:55:28.229Z,600.20
2018-06-12T08:56:28.244Z,600.60
2018-06-12T08:57:28.260Z,686.20
2018-06-12T08:58:28.275Z,782.90
2018-06-12T08:59:28.291Z,657.70
2018-06-12T09:00:28.305Z,747.40
2018-06-12T09:01:28.321Z,742.50
2018-06-12T09:02:28.337Z,414.40
2018-06-12T09:03:28.352Z,579.80
2018-06-12T09:04:28.366Z,247.80
2018-06-12T09:05:28.383Z,914.90
2018-06-12T09:06:28.399Z,323.40
2018-06-12T09:07:28.414Z,44.70
2018-06-12T09:08:28.429Z,71.90
2018-06-12T09:09:28.442Z,183.10
2018-06-12T09:10:28.458Z,218.10
2018-06-12T09:11:28.475Z,132.30
2018-06-12T09:12:28.489Z,59.30
2018-06-12T09:13:28.504Z,8.90
2018-06-12T09:14:28.519Z,7.90
2018-06-12T09:15:28.541Z,5.90
2018-06-12T09:16:28.551Z,7.20
2018-06-12T09:17:28.564Z,7.40
2018-06-12T09:18:28.581Z,107.40
2018-06-12T09:19:28.618Z,66.60
2018-06-12T09:20:28.611Z,33.90
2018-06-12T09:21:28.629Z,12.70
2018-06-12T09:22:28.650Z,111.50
2018-06-12T09:23:28.661Z,791.70
2018-06-12T09:24:28.676Z,98.40
2018-06-12T09:25:28.693Z,82.20
2018-06-12T09:26:28.708Z,39.60
2018-06-12T09:27:28.722Z,9.00
2018-06-12T09:28:28.739Z,7.60
2018-06-12T09:29:28.754Z,24.40
2018-06-12T09:30:28.770Z,8.20
2018-06-12T09:31:28.787Z,6.40
2018-06-12T09:32:28.801Z,7.20
2018-06-12T09:33:28.820Z,8.50
2018-06-12T09:34:28.834Z,6.00
2018-06-12T09:35:28.851Z,7.30
2018-06-12T09:36:28.867Z,7.60
2018-06-12T09:37:28.886Z,8.90
2018-06-12T09:38:28.899Z,8.10
2018-06-12T09:39:28.917Z,7.50
2018-06-12T09:40:28.932Z,7.40
2018-06-12T09:41:28.948Z,7.00
2018-06-12T09:42:28.966Z,7.50
2018-06-12T09:43:28.982Z,6.30
2018-06-12T09:44:28.998Z,7.80
2018-06-12T09:45:29.012Z,5.90
2018-06-12T09:46:29.031Z,6.60
2018-06-12T09:47:29.050Z,8.80
2018-06-12T09:48:29.061Z,7.20
2018-06-12T09:49:29.104Z,6.00
2018-06-12T09:50:29.096Z,6.10
2018-06-12T09:51:29.119Z,9.20
2018-06-12T09:52:29.136Z,6.80
2018-06-12T09:53:29.147Z,8.00
2018-06-12T09:54:29.166Z,6.50
2018-06-12T09:55:29.183Z,5.80
2018-06-12T09:56:29.199Z,6.90
2018-06-12T09:57:29.215Z,7.60
2018-06-12T09:58:29.231Z,7.30
2018-06-12T09:59:29.249Z,8.50
2018-06-12T10:00:29.268Z,8.10
2018-06-12T10:01:29.280Z,6.90
2018-06-12T10:02:29.299Z,6.50
2018-06-12T10:03:29.314Z,8.00
2018-06-12T10:04:29.329Z,4.90
2018-06-12T10:05:29.348Z,6.50
2018-06-12T10:06:29.365Z,4.70
2018-06-12T10:07:29.380Z,4.20
2018-06-12T10:08:29.396Z,6.90
2018-06-12T10:09:29.411Z,5.20
2018-06-12T10:10:29.431Z,5.90
2018-06-12T10:11:29.444Z,7.60
2018-06-12T10:12:29.460Z,5.40
2018-06-12T10:13:29.475Z,8.90
2018-06-12T10:14:29.491Z,8.50
2018-06-12T10:15:29.508Z,5.90
2018-06-12T10:16:29.524Z,9.10
2018-06-12T10:17:29.542Z,5.80
2018-06-12T10:18:29.557Z,5.00
2018-06-12T10:19:29.572Z,6.10
2018-06-12T10:20:29.587Z,6.70
2018-06-12T10:21:29.671Z,4.90
2018-06-12T10:22:29.622Z,7.80
2018-06-12T10:23:29.634Z,8.50
2018-06-12T10:24:29.652Z,5.70
2018-06-12T10:25:29.668Z,6.80
2018-06-12T10:26:29.683Z,8.10
2018-06-12T10:27:29.700Z,9.50
2018-06-12T10:28:29.719Z,5.60
2018-06-12T10:29:29.733Z,7.40
2018-06-12T10:30:29.759Z,5.80
2018-06-12T10:31:29.767Z,5.50
2018-06-12T10:32:29.780Z,7.20
2018-06-12T10:33:29.799Z,6.40
2018-06-12T10:34:29.817Z,9.80
2018-06-12T10:35:29.830Z,7.00
2018-06-12T10:36:29.846Z,6.90
2018-06-12T10:37:29.915Z,3.70
2018-06-12T10:38:29.877Z,7.80
2018-06-12T10:39:29.894Z,8.00
2018-06-12T10:40:29.910Z,6.70
2018-06-12T10:41:29.927Z,6.10
2018-06-12T10:42:29.947Z,4.90
2018-06-12T10:43:29.959Z,7.30
2018-06-12T10:44:29.979Z,8.00
2018-06-12T10:45:29.992Z,5.90
2018-06-12T10:46:30.012Z,5.30
2018-06-12T10:47:30.026Z,6.70
2018-06-12T10:48:30.042Z,6.80
2018-06-12T10:49:30.058Z,5.90
2018-06-12T10:50:30.075Z,4.80
2018-06-12T10:51:30.100Z,4.80
2018-06-12T10:52:30.113Z,5.80
2018-06-12T10:53:30.123Z,6.00
2018-06-12T10:54:30.141Z,6.20
2018-06-12T10:55:30.156Z,5.60
2018-06-12T10:56:30.220Z,4.00
2018-06-12T10:57:30.193Z,9.10
2018-06-12T10:58:30.210Z,5.70
2018-06-12T10:59:30.237Z,5.10
2018-06-12T11:00:30.238Z,4.30
2018-06-12T11:01:30.260Z,5.60
2018-06-12T11:02:30.275Z,7.80
2018-06-12T11:03:30.341Z,5.50
2018-06-12T11:04:30.305Z,7.60
2018-06-12T11:05:30.322Z,4.50
2018-06-12T11:06:30.342Z,6.60
2018-06-12T11:07:30.358Z,6.90
2018-06-12T11:08:30.372Z,6.20
2018-06-12T11:09:30.388Z,4.20
2018-06-12T11:10:30.405Z,5.60
2018-06-12T11:11:30.422Z,3.10
2018-06-12T11:12:30.436Z,6.80
2018-06-12T11:13:30.459Z,7.30
2018-06-12T11:14:30.472Z,10.30
2018-06-12T11:15:30.488Z,4.50
2018-06-12T11:16:30.504Z,6.00
2018-06-12T11:17:30.522Z,6.30
2018-06-12T11:18:30.543Z,4.90
2018-06-12T11:19:30.555Z,4.30
2018-06-12T11:20:30.574Z,7.20
2018-06-12T11:21:30.586Z,5.30
2018-06-12T11:22:30.609Z,5.10
2018-06-12T11:23:30.621Z,7.10
2018-06-12T11:24:30.638Z,6.40
2018-06-12T11:25:30.653Z,5.80
2018-06-12T11:26:30.669Z,6.00
2018-06-12T11:27:30.687Z,7.40
2018-06-12T11:28:30.700Z,5.40
2018-06-12T11:29:30.717Z,7.10
2018-06-12T11:30:30.735Z,11.40
2018-06-12T11:31:30.755Z,8.00
2018-06-12T11:32:30.771Z,6.30
2018-06-12T11:33:30.782Z,7.50
2018-06-12T11:34:30.800Z,4.90
2018-06-12T11:35:30.817Z,6.10
2018-06-12T11:36:30.833Z,5.70
2018-06-12T11:37:30.850Z,8.00
2018-06-12T11:38:30.866Z,7.60
2018-06-12T11:39:30.883Z,6.50
2018-06-12T11:40:30.902Z,9.20
2018-06-12T11:41:30.916Z,10.10
2018-06-12T11:42:30.932Z,5.90
2018-06-12T11:43:30.951Z,7.90
2018-06-12T11:44:30.964Z,5.30
2018-06-12T11:45:30.982Z,8.60
2018-06-12T11:46:30.999Z,6.80
2018-06-12T11:47:31.015Z,5.90
2018-06-12T11:48:31.030Z,5.50
2018-06-12T11:49:31.048Z,5.80
2018-06-12T11:50:31.066Z,6.60
2018-06-12T11:51:31.080Z,7.00
2018-06-12T11:52:31.097Z,7.80
2018-06-12T11:53:31.115Z,7.20
2018-06-12T11:54:31.130Z,7.70
2018-06-12T11:55:31.149Z,5.40
2018-06-12T11:56:31.165Z,7.10
2018-06-12T11:57:31.180Z,6.30
2018-06-12T11:58:31.197Z,8.00
2018-06-12T11:59:31.213Z,10.80
2018-06-12T12:00:31.230Z,7.80
2018-06-12T12:01:31.245Z,7.40
2018-06-12T12:02:31.267Z,8.20
2018-06-12T12:03:31.280Z,8.60
2018-06-12T12:04:31.296Z,6.80
2018-06-12T12:05:31.312Z,8.10
2018-06-12T12:06:31.331Z,8.10
2018-06-12T12:07:31.347Z,6.30
2018-06-12T12:08:31.360Z,9.60
2018-06-12T12:09:31.379Z,9.80
2018-06-12T12:10:31.395Z,5.50
2018-06-12T12:11:31.412Z,7.90
2018-06-12T12:12:31.432Z,8.70
2018-06-12T12:13:31.450Z,11.70
2018-06-12T12:14:31.462Z,10.00
2018-06-12T12:15:31.477Z,6.70
2018-06-12T12:16:31.493Z,9.90
2018-06-12T12:17:31.511Z,9.70
2018-06-12T12:18:31.530Z,15.30
2018-06-12T12:19:31.543Z,6.90
2018-06-12T12:20:31.559Z,9.40
2018-06-12T12:21:31.577Z,11.80
2018-06-12T12:22:31.591Z,8.90
2018-06-12T12:23:31.610Z,13.40
2018-06-12T12:24:31.623Z,13.90
2018-06-12T12:25:31.641Z,7.20
2018-06-12T12:26:31.657Z,9.20
2018-06-12T12:27:31.672Z,10.30
2018-06-12T12:28:31.703Z,7.90
2018-06-12T12:29:31.703Z,9.50
2018-06-12T12:30:31.721Z,10.60
2018-06-12T12:31:31.741Z,12.30
2018-06-12T12:32:31.759Z,10.90
2018-06-12T12:33:31.768Z,8.90
2018-06-12T12:34:31.787Z,8.50
2018-06-12T12:35:31.803Z,10.90
2018-06-12T12:36:31.818Z,13.10
2018-06-12T12:37:31.839Z,8.50
2018-06-12T12:38:31.861Z,6.10
2018-06-12T12:39:31.867Z,56.70
2018-06-12T12:40:31.893Z,39.20
2018-06-12T12:41:31.900Z,9.30
2018-06-12T12:42:31.916Z,10.80
2018-06-12T12:43:31.969Z,5.80
2018-06-12T12:44:31.947Z,6.20